Time;durP1;ratioP1;P1;durP2;ratioP2;P2;SDS_P1;SDS_P2;PMS_P1;PMS_P2;Temp;Humidity;BMP_temperature;BMP_pressure;BME280_temperature;BME280_humidity;BME280_pressure;Samples;Min_cycle;Max_cycle;Signal;HPM_P1;HPM_P2
2021/07/26 00:01:01;;;;;;;11.20;9.80;;;15.80;99.90;;;;;;5073077;28;20078;-85
2021/07/26 00:03:28;;;;;;;11.38;10.18;;;15.70;99.90;;;;;;5071895;28;20090;-85
2021/07/26 00:05:57;;;;;;;12.07;10.77;;;15.80;99.90;;;;;;5071894;28;20049;-86
2021/07/26 00:08:34;;;;;;;11.55;10.25;;;15.80;99.90;;;;;;5072228;28;20511;-86
2021/07/26 00:11:06;;;;;;;16.00;10.35;;;15.70;99.90;;;;;;5072987;28;20118;-85
2021/07/26 00:13:34;;;;;;;10.48;9.48;;;15.70;99.90;;;;;;5073187;28;20124;-86
2021/07/26 00:16:02;;;;;;;11.45;10.25;;;15.60;99.90;;;;;;5071987;28;20057;-86
2021/07/26 00:18:29;;;;;;;11.82;10.57;;;15.60;99.90;;;;;;5075488;28;20048;-86
2021/07/26 00:20:57;;;;;;;14.10;10.95;;;15.50;99.90;;;;;;5077335;28;20052;-86
2021/07/26 00:23:24;;;;;;;14.77;10.60;;;15.40;99.90;;;;;;5076301;28;20052;-86
2021/07/26 00:25:51;;;;;;;16.08;10.93;;;15.50;99.90;;;;;;5075597;28;20511;-86
2021/07/26 00:28:18;;;;;;;12.38;11.00;;;15.50;99.90;;;;;;5075559;28;20048;-85
2021/07/26 00:30:45;;;;;;;11.90;10.70;;;15.40;99.90;;;;;;5075898;28;20105;-86
2021/07/26 00:34:08;;;;;;;12.40;10.73;;;15.40;99.90;;;;;;5075800;28;20044;-86
2021/07/26 00:36:36;;;;;;;12.82;11.52;;;15.40;99.90;;;;;;5075765;28;20066;-86
2021/07/26 00:39:05;;;;;;;13.48;11.43;;;15.50;99.90;;;;;;5076212;28;20056;-86
2021/07/26 00:41:33;;;;;;;11.05;9.95;;;15.50;99.90;;;;;;5091405;28;20035;-86
2021/07/26 00:44:00;;;;;;;11.48;10.20;;;15.50;99.90;;;;;;5086394;28;20112;-85
2021/07/26 00:46:26;;;;;;;13.25;10.82;;;15.50;99.90;;;;;;5076561;28;20452;-86
2021/07/26 00:48:53;;;;;;;11.00;9.93;;;15.50;99.90;;;;;;5076816;28;20049;-86
2021/07/26 00:51:20;;;;;;;12.32;10.52;;;15.30;99.90;;;;;;5075720;28;20131;-85
2021/07/26 00:53:48;;;;;;;12.30;10.30;;;15.20;99.90;;;;;;5076201;28;20095;-86
2021/07/26 00:56:15;;;;;;;13.70;12.18;;;15.10;99.90;;;;;;5076174;28;20417;-86
2021/07/26 00:58:42;;;;;;;14.68;11.82;;;15.00;99.90;;;;;;5074929;28;20045;-85
2021/07/26 01:01:09;;;;;;;13.75;12.35;;;15.00;99.90;;;;;;5075068;28;20123;-86
2021/07/26 01:03:36;;;;;;;11.93;10.50;;;15.00;99.90;;;;;;5075576;28;20053;-86
2021/07/26 01:06:03;;;;;;;13.00;11.60;;;15.00;99.90;;;;;;5075931;28;20044;-86
2021/07/26 01:08:30;;;;;;;12.18;10.93;;;15.00;99.90;;;;;;5075411;28;20082;-86
2021/07/26 01:10:57;;;;;;;11.90;10.68;;;15.00;99.90;;;;;;5075400;28;20051;-86
2021/07/26 01:13:26;;;;;;;12.00;10.80;;;14.80;99.90;;;;;;5074813;28;20619;-86
2021/07/26 01:15:53;;;;;;;12.13;10.93;;;14.90;99.90;;;;;;5075943;28;20059;-86
2021/07/26 01:18:30;;;;;;;14.20;11.55;;;14.90;99.90;;;;;;5075617;28;20067;-86
2021/07/26 01:21:02;;;;;;;11.98;10.65;;;15.00;99.90;;;;;;5075383;28;20041;-86
2021/07/26 01:23:33;;;;;;;12.50;11.20;;;15.00;99.90;;;;;;5079451;28;20045;-87
2021/07/26 01:26:03;;;;;;;12.32;11.13;;;15.10;99.90;;;;;;5075181;28;20135;-86
2021/07/26 01:28:34;;;;;;;12.73;11.07;;;15.10;99.90;;;;;;5074627;28;20424;-86
2021/07/26 01:31:01;;;;;;;13.52;11.75;;;15.00;99.90;;;;;;5075174;28;20107;-86
2021/07/26 01:33:29;;;;;;;12.90;11.40;;;14.90;99.90;;;;;;5074540;28;20110;-86
2021/07/26 01:35:55;;;;;;;10.93;9.82;;;14.90;99.90;;;;;;5074197;28;20385;-85
2021/07/26 01:38:22;;;;;;;12.88;10.82;;;14.90;99.90;;;;;;5074574;28;20133;-86
2021/07/26 01:40:50;;;;;;;13.13;11.00;;;14.90;99.90;;;;;;5075726;28;20054;-86
2021/07/26 01:43:18;;;;;;;12.02;10.13;;;14.90;99.90;;;;;;5075821;28;20056;-86
2021/07/26 01:45:57;;;;;;;11.13;10.02;;;14.90;99.90;;;;;;5075206;28;20066;-86
2021/07/26 01:48:38;;;;;;;14.18;11.52;;;14.90;99.90;;;;;;5074264;28;20061;-86
2021/07/26 01:51:10;;;;;;;12.38;11.00;;;14.80;99.90;;;;;;5075169;28;20071;-85
2021/07/26 01:53:40;;;;;;;12.38;11.02;;;14.70;99.90;;;;;;5075307;28;20512;-85
2021/07/26 01:56:06;;;;;;;14.50;11.32;;;14.70;99.90;;;;;;5074016;28;20052;-86
2021/07/26 01:58:34;;;;;;;12.93;11.63;;;14.70;99.90;;;;;;5074856;28;20062;-86
2021/07/26 02:01:00;;;;;;;13.88;12.32;;;14.50;99.90;;;;;;5094718;28;20063;-86
2021/07/26 02:03:30;;;;;;;14.63;12.15;;;14.40;99.90;;;;;;5081864;28;20405;-86
2021/07/26 02:05:58;;;;;;;16.20;12.63;;;14.30;99.90;;;;;;5073780;28;20136;-86
2021/07/26 02:08:24;;;;;;;14.02;12.52;;;14.30;99.90;;;;;;5074941;28;20049;-86
2021/07/26 02:10:51;;;;;;;15.27;12.77;;;14.30;99.90;;;;;;5074939;28;20136;-86
2021/07/26 02:13:18;;;;;;;14.20;12.13;;;14.30;99.90;;;;;;5073697;28;20049;-86
2021/07/26 02:15:45;;;;;;;15.10;12.05;;;14.30;99.90;;;;;;5074757;28;20444;-85
2021/07/26 02:18:12;;;;;;;14.88;13.35;;;14.30;99.90;;;;;;5073502;28;20062;-86
2021/07/26 02:20:39;;;;;;;18.42;12.98;;;14.20;99.90;;;;;;5073774;28;20436;-85
2021/07/26 02:23:05;;;;;;;13.13;11.82;;;14.20;99.90;;;;;;5073670;28;20083;-86
2021/07/26 02:25:32;;;;;;;15.32;12.63;;;14.30;99.90;;;;;;5073401;28;20048;-86
2021/07/26 02:27:59;;;;;;;14.15;11.73;;;14.30;99.90;;;;;;5073629;28;20131;-86
2021/07/26 02:30:26;;;;;;;16.30;12.52;;;14.30;99.90;;;;;;5073272;28;20071;-86
2021/07/26 02:32:53;;;;;;;14.65;12.00;;;14.30;99.90;;;;;;5073421;28;20048;-85
2021/07/26 02:35:19;;;;;;;14.02;12.20;;;14.40;99.90;;;;;;5073082;28;20052;-86
2021/07/26 02:37:46;;;;;;;15.55;12.13;;;14.30;99.90;;;;;;5073046;28;20052;-86
2021/07/26 02:40:13;;;;;;;20.38;13.43;;;14.30;99.90;;;;;;5073335;28;20062;-86
2021/07/26 02:42:40;;;;;;;16.77;12.70;;;14.30;99.90;;;;;;5073318;28;20055;-85
2021/07/26 02:45:07;;;;;;;17.00;13.65;;;14.30;99.90;;;;;;5073918;28;20059;-86
2021/07/26 02:47:34;;;;;;;17.08;13.15;;;14.30;99.90;;;;;;5073081;28;20053;-86
2021/07/26 02:50:01;;;;;;;14.02;12.65;;;14.20;99.90;;;;;;5074040;28;20048;-85
2021/07/26 02:52:28;;;;;;;18.48;12.82;;;14.10;99.90;;;;;;5072952;28;20052;-86
2021/07/26 02:54:54;;;;;;;19.40;13.52;;;14.30;99.90;;;;;;5072965;28;20396;-85
2021/07/26 02:57:21;;;;;;;17.13;13.35;;;14.30;99.90;;;;;;5072832;28;20485;-86
2021/07/26 02:59:48;;;;;;;13.98;12.57;;;14.40;99.90;;;;;;5072951;28;20052;-85
2021/07/26 03:02:15;;;;;;;19.52;13.70;;;14.40;99.90;;;;;;5072552;28;20058;-86
2021/07/26 03:04:42;;;;;;;15.25;13.18;;;14.30;99.90;;;;;;5073879;28;20044;-85
2021/07/26 03:07:09;;;;;;;15.13;13.63;;;14.30;99.90;;;;;;5073630;28;20049;-86
2021/07/26 03:09:35;;;;;;;14.10;12.60;;;14.20;99.90;;;;;;5072436;28;20048;-86
2021/07/26 03:12:02;;;;;;;14.75;12.45;;;14.20;99.90;;;;;;5073672;28;20527;-85
2021/07/26 03:14:29;;;;;;;14.75;12.95;;;14.20;99.90;;;;;;5073837;28;20048;-86
2021/07/26 03:16:56;;;;;;;14.93;13.43;;;14.20;99.90;;;;;;5073995;28;20044;-85
2021/07/26 03:19:22;;;;;;;20.98;14.80;;;14.20;99.90;;;;;;5088181;28;20061;-86
2021/07/26 03:22:42;;;;;;;17.20;14.55;;;14.20;99.90;;;;;;5078030;28;20520;-86
2021/07/26 03:25:09;;;;;;;16.48;14.20;;;14.20;99.90;;;;;;5056349;28;20054;-85
2021/07/26 03:27:35;;;;;;;14.52;12.82;;;14.30;99.90;;;;;;5072396;28;20404;-86
2021/07/26 03:30:03;;;;;;;14.90;13.35;;;14.20;99.90;;;;;;5072021;28;20063;-86
2021/07/26 03:32:29;;;;;;;14.38;12.88;;;14.20;99.90;;;;;;5072266;28;20044;-86
2021/07/26 03:34:56;;;;;;;18.65;13.73;;;14.20;99.90;;;;;;5073081;28;20131;-86
2021/07/26 03:37:23;;;;;;;14.88;13.25;;;14.20;99.90;;;;;;5071982;28;20052;-86
2021/07/26 03:39:50;;;;;;;16.02;12.60;;;14.20;99.90;;;;;;5072118;28;20051;-86
2021/07/26 03:42:16;;;;;;;13.50;12.13;;;14.30;99.90;;;;;;5072487;28;20412;-86
2021/07/26 03:44:43;;;;;;;19.25;13.80;;;14.30;99.90;;;;;;5072994;28;20109;-86
2021/07/26 03:47:10;;;;;;;13.70;12.30;;;14.30;99.90;;;;;;5073086;28;20084;-85
2021/07/26 03:49:37;;;;;;;16.75;12.68;;;14.40;99.90;;;;;;5073293;28;20053;-86
2021/07/26 03:52:04;;;;;;;14.43;12.82;;;14.40;99.90;;;;;;5071292;28;20048;-86
2021/07/26 03:54:31;;;;;;;18.15;14.30;;;14.50;99.90;;;;;;5072058;28;20071;-86
2021/07/26 03:56:58;;;;;;;18.77;13.10;;;14.50;99.90;;;;;;5071868;28;20412;-86
2021/07/26 03:59:25;;;;;;;17.17;12.60;;;14.50;99.90;;;;;;5071702;28;20377;-86
2021/07/26 04:01:55;;;;;;;18.58;13.43;;;14.60;99.90;;;;;;5070575;28;20048;-85
2021/07/26 04:04:23;;;;;;;17.52;14.02;;;14.60;99.90;;;;;;5071865;28;20052;-86
2021/07/26 04:07:01;;;;;;;13.95;12.55;;;14.60;99.90;;;;;;5071218;28;20044;-85
2021/07/26 04:09:34;;;;;;;17.10;13.40;;;14.70;99.90;;;;;;5070549;28;20040;-85
2021/07/26 04:12:05;;;;;;;14.23;12.73;;;14.70;99.90;;;;;;5071240;28;20048;-86
2021/07/26 04:14:36;;;;;;;14.73;12.85;;;14.80;99.90;;;;;;5072138;28;20041;-85
2021/07/26 04:17:03;;;;;;;14.85;13.35;;;14.90;99.90;;;;;;5069469;28;20041;-86
2021/07/26 04:19:30;;;;;;;14.50;13.00;;;14.90;99.90;;;;;;5071064;28;20059;-85
2021/07/26 04:21:57;;;;;;;15.40;12.32;;;15.00;99.90;;;;;;5071667;28;20050;-86
2021/07/26 04:24:25;;;;;;;13.40;11.82;;;14.90;99.90;;;;;;5072005;28;20056;-85
2021/07/26 04:26:52;;;;;;;14.60;12.45;;;15.00;99.90;;;;;;5071339;28;20507;-86
2021/07/26 04:29:19;;;;;;;15.02;13.00;;;14.90;99.90;;;;;;5071822;28;20040;-85
2021/07/26 04:31:47;;;;;;;18.35;13.27;;;15.00;99.90;;;;;;5071787;28;20052;-85
2021/07/26 04:34:14;;;;;;;15.27;13.45;;;15.00;99.90;;;;;;5071937;28;20058;-85
2021/07/26 04:36:41;;;;;;;15.02;13.05;;;15.10;99.90;;;;;;5073655;28;20481;-86
2021/07/26 04:39:08;;;;;;;14.73;12.55;;;15.20;99.90;;;;;;5092337;28;20482;-86
2021/07/26 04:41:35;;;;;;;15.38;12.30;;;15.30;99.90;;;;;;5073815;28;20049;-86
2021/07/26 04:44:04;;;;;;;12.07;10.88;;;15.40;99.90;;;;;;5071971;28;20106;-86
2021/07/26 04:46:31;;;;;;;14.23;12.10;;;15.50;99.90;;;;;;5073194;28;20058;-86
2021/07/26 04:48:57;;;;;;;11.80;10.63;;;15.50;99.90;;;;;;5071552;28;20044;-85
2021/07/26 04:51:24;;;;;;;12.43;11.13;;;15.50;99.90;;;;;;5070143;28;20045;-86
2021/07/26 04:53:51;;;;;;;12.18;10.98;;;15.50;99.90;;;;;;5071306;28;20055;-86
2021/07/26 04:56:18;;;;;;;12.23;10.85;;;15.70;99.90;;;;;;5069777;28;20045;-86
2021/07/26 04:58:44;;;;;;;14.35;11.00;;;15.80;99.90;;;;;;5069865;28;20053;-86
2021/07/26 05:01:11;;;;;;;15.85;10.68;;;15.90;99.90;;;;;;5070174;28;20040;-86
2021/07/26 05:03:39;;;;;;;11.15;10.15;;;15.90;99.90;;;;;;5074935;28;20084;-86
2021/07/26 05:06:06;;;;;;;12.40;10.43;;;16.00;99.90;;;;;;5074713;28;20048;-85
2021/07/26 05:08:33;;;;;;;23.08;10.93;;;16.10;99.90;;;;;;5076327;28;20095;-85
2021/07/26 05:11:01;;;;;;;11.57;10.00;;;16.20;99.90;;;;;;5075249;28;20053;-86
2021/07/26 05:13:27;;;;;;;13.65;9.90;;;16.20;99.90;;;;;;5076737;28;20048;-86
2021/07/26 05:15:54;;;;;;;11.88;8.88;;;16.30;99.90;;;;;;5075095;28;20072;-85
2021/07/26 05:18:21;;;;;;;12.82;9.52;;;16.50;99.90;;;;;;5076059;28;20143;-85
2021/07/26 05:20:47;;;;;;;12.02;8.68;;;16.60;99.90;;;;;;5076306;28;20076;-85
2021/07/26 05:23:16;;;;;;;14.65;9.18;;;16.80;99.90;;;;;;5076092;28;20052;-85
2021/07/26 05:25:44;;;;;;;16.30;8.02;;;17.00;99.90;;;;;;5074883;28;20068;-85
2021/07/26 05:28:14;;;;;;;21.48;9.27;;;17.40;99.90;;;;;;5074003;28;20051;-85
2021/07/26 05:30:42;;;;;;;11.90;7.18;;;17.60;99.90;;;;;;5075725;28;20404;-84
2021/07/26 05:33:08;;;;;;;8.77;7.88;;;17.90;99.90;;;;;;5075179;28;20098;-84
2021/07/26 05:35:35;;;;;;;12.32;7.25;;;18.30;99.90;;;;;;5074762;28;20036;-84
2021/07/26 05:38:05;;;;;;;9.85;7.00;;;19.00;99.90;;;;;;5073941;28;20040;-84
2021/07/26 05:40:32;;;;;;;7.97;6.38;;;19.90;99.90;;;;;;5075327;28;20465;-84
2021/07/26 05:43:00;;;;;;;10.52;7.20;;;20.50;99.90;;;;;;5075065;28;20070;-84
2021/07/26 05:45:27;;;;;;;7.00;6.30;;;21.10;99.90;;;;;;5073695;28;20102;-84
2021/07/26 05:47:54;;;;;;;7.25;6.55;;;21.50;99.90;;;;;;5073624;28;20086;-84
2021/07/26 05:50:20;;;;;;;10.63;6.97;;;21.60;99.90;;;;;;5073975;28;20059;-85
2021/07/26 05:52:48;;;;;;;7.82;6.75;;;21.70;99.90;;;;;;5074040;28;20052;-84
2021/07/26 05:55:15;;;;;;;9.25;6.70;;;22.00;99.90;;;;;;5074885;28;20076;-85
2021/07/26 05:57:46;;;;;;;9.18;6.93;;;22.30;99.90;;;;;;5073565;28;20394;-85
2021/07/26 06:00:24;;;;;;;9.63;7.00;;;22.50;99.90;;;;;;5073986;28;20040;-85
2021/07/26 06:02:51;;;;;;;9.93;6.75;;;23.80;99.90;;;;;;5073968;28;20490;-85
2021/07/26 06:05:18;;;;;;;8.82;5.60;;;24.80;99.90;;;;;;5074790;28;20063;-84
2021/07/26 06:07:44;;;;;;;9.10;6.28;;;25.90;99.90;;;;;;5072926;28;20503;-85
2021/07/26 06:10:11;;;;;;;9.10;6.03;;;26.30;99.90;;;;;;5073369;28;20524;-84
2021/07/26 06:12:38;;;;;;;12.65;5.93;;;26.90;99.90;;;;;;5074328;28;20147;-84
2021/07/26 06:15:05;;;;;;;10.73;5.75;;;27.60;99.90;;;;;;5071655;28;20040;-84
2021/07/26 06:17:32;;;;;;;10.18;6.05;;;28.10;99.90;;;;;;5072085;28;20259;-84
2021/07/26 06:19:59;;;;;;;7.30;5.78;;;28.50;99.90;;;;;;5071044;28;20615;-83
2021/07/26 06:22:25;;;;;;;10.90;5.75;;;28.20;99.90;;;;;;5072406;28;20048;-85
2021/07/26 06:24:53;;;;;;;12.65;5.82;;;28.10;99.90;;;;;;5073559;28;20049;-85
2021/07/26 06:27:19;;;;;;;9.07;6.13;;;27.30;99.90;;;;;;5072818;28;20052;-83
2021/07/26 06:29:48;;;;;;;10.40;5.90;;;26.90;99.90;;;;;;5072463;28;20052;-84
2021/07/26 06:32:15;;;;;;;10.30;6.22;;;26.40;99.90;;;;;;5073555;28;20211;-84
2021/07/26 06:34:42;;;;;;;8.15;5.97;;;26.40;99.90;;;;;;5072460;28;20126;-84
2021/07/26 06:37:08;;;;;;;7.40;5.55;;;26.60;99.90;;;;;;5072301;28;20497;-84
2021/07/26 06:39:35;;;;;;;6.60;5.53;;;27.70;99.90;;;;;;5073807;28;20045;-84
2021/07/26 06:42:02;;;;;;;5.63;5.07;;;28.40;99.90;;;;;;5072720;28;20071;-84
2021/07/26 06:44:29;;;;;;;6.68;4.88;;;28.80;99.90;;;;;;5073511;28;20055;-84
2021/07/26 06:46:56;;;;;;;6.95;5.20;;;29.70;99.90;;;;;;5073517;28;20489;-84
2021/07/26 06:49:22;;;;;;;10.65;5.15;;;31.50;99.90;;;;;;5072455;28;20048;-84
2021/07/26 06:51:49;;;;;;;8.10;5.10;;;32.50;99.00;;;;;;5073597;28;20404;-84
2021/07/26 06:54:16;;;;;;;6.70;4.68;;;33.30;95.20;;;;;;5072346;28;20489;-85
2021/07/26 06:56:43;;;;;;;6.68;4.78;;;34.40;92.00;;;;;;5073408;28;20047;-86
2021/07/26 06:59:10;;;;;;;9.25;5.10;;;34.90;88.30;;;;;;5072365;28;20056;-85
2021/07/26 07:01:36;;;;;;;6.75;4.80;;;34.90;84.40;;;;;;5073363;28;20044;-85
2021/07/26 07:04:04;;;;;;;11.10;5.25;;;35.30;83.00;;;;;;5072378;28;20151;-84
2021/07/26 07:06:31;;;;;;;6.38;4.85;;;34.70;81.20;;;;;;5072048;28;20403;-84
2021/07/26 07:08:58;;;;;;;9.05;5.25;;;34.20;82.90;;;;;;5072308;28;20048;-84
2021/07/26 07:11:25;;;;;;;7.82;5.03;;;33.00;85.00;;;;;;5072002;28;20044;-84
2021/07/26 07:13:54;;;;;;;8.00;4.95;;;32.50;87.70;;;;;;5072107;28;20052;-85
2021/07/26 07:16:22;;;;;;;11.32;5.20;;;32.20;88.80;;;;;;5070936;28;20496;-84
2021/07/26 07:18:54;;;;;;;16.27;5.25;;;33.00;89.60;;;;;;5072842;28;20053;-85
2021/07/26 07:21:31;;;;;;;8.48;4.50;;;34.30;86.40;;;;;;5071932;28;20400;-85
2021/07/26 07:24:00;;;;;;;8.18;4.18;;;34.80;83.70;;;;;;5072626;28;20127;-85
2021/07/26 07:26:28;;;;;;;16.60;4.60;;;36.30;81.50;;;;;;5072103;28;20047;-85
2021/07/26 07:28:56;;;;;;;10.65;4.70;;;37.70;75.90;;;;;;5072239;28;20044;-84
2021/07/26 07:31:24;;;;;;;7.90;3.90;;;38.40;71.50;;;;;;5072145;28;20123;-85
2021/07/26 07:33:51;;;;;;;10.15;4.25;;;37.90;68.70;;;;;;5071636;28;20067;-84
2021/07/26 07:36:18;;;;;;;5.55;3.75;;;38.00;67.30;;;;;;5072466;28;20058;-85
2021/07/26 07:38:45;;;;;;;5.63;3.80;;;38.50;67.40;;;;;;5071672;28;20052;-85
2021/07/26 07:41:12;;;;;;;3.92;3.50;;;39.70;64.20;;;;;;5072328;28;20507;-86
2021/07/26 07:43:39;;;;;;;4.05;3.60;;;39.00;63.00;;;;;;5072258;28;20560;-86
2021/07/26 07:46:05;;;;;;;3.72;3.40;;;39.60;61.40;;;;;;5073203;28;20083;-85
2021/07/26 07:48:33;;;;;;;3.20;3.00;;;40.70;59.90;;;;;;5072003;28;20055;-85
2021/07/26 07:51:00;;;;;;;3.45;2.90;;;41.30;58.90;;;;;;5072979;28;20107;-85
2021/07/26 07:53:28;;;;;;;3.25;3.05;;;42.50;57.00;;;;;;5072833;28;20051;-85
2021/07/26 07:55:55;;;;;;;4.05;2.65;;;43.00;55.20;;;;;;5072907;28;20053;-85
2021/07/26 07:58:22;;;;;;;4.00;3.00;;;42.00;54.60;;;;;;5073018;28;20443;-85
2021/07/26 08:00:50;;;;;;;2.85;2.65;;;41.90;54.30;;;;;;5071884;28;20563;-85
2021/07/26 08:03:19;;;;;;;3.53;3.22;;;42.40;54.50;;;;;;5071862;28;20118;-86
2021/07/26 08:05:47;;;;;;;3.78;3.13;;;40.80;54.60;;;;;;5071967;28;20048;-87
2021/07/26 08:08:14;;;;;;;4.55;2.90;;;39.30;55.40;;;;;;5073376;28;20055;-90
2021/07/26 08:10:41;;;;;;;9.38;3.63;;;38.30;56.10;;;;;;5072351;28;20196;-86
2021/07/26 08:13:07;;;;;;;4.90;3.50;;;37.00;58.30;;;;;;5071272;28;20082;-86
2021/07/26 08:15:34;;;;;;;3.67;3.35;;;36.90;59.10;;;;;;5071087;28;20052;-86
2021/07/26 08:18:02;;;;;;;20.85;4.28;;;36.10;59.60;;;;;;5072203;28;20052;-85
2021/07/26 08:20:30;;;;;;;5.30;3.17;;;35.30;61.90;;;;;;5071981;28;20055;-86
2021/07/26 08:22:56;;;;;;;3.45;3.15;;;36.70;60.40;;;;;;5072080;28;20040;-89
2021/07/26 08:25:23;;;;;;;3.00;2.80;;;38.30;59.30;;;;;;5072552;28;20045;-88
2021/07/26 08:27:55;;;;;;;2.90;2.70;;;37.50;57.60;;;;;;5072954;28;20059;-88
2021/07/26 08:30:27;;;;;;;10.20;3.70;;;35.00;59.00;;;;;;5072345;28;20049;-87
2021/07/26 08:32:59;;;;;;;8.80;3.50;;;33.30;65.20;;;;;;5072233;28;20052;-88
2021/07/26 08:35:26;;;;;;;12.18;4.07;;;32.70;63.80;;;;;;5072796;28;20045;-87
2021/07/26 08:37:53;;;;;;;4.65;3.13;;;33.00;66.00;;;;;;5075814;28;20507;-89
2021/07/26 08:40:22;;;;;;;3.90;2.90;;;34.60;63.30;;;;;;5079917;28;20123;-88
2021/07/26 08:42:49;;;;;;;2.60;2.40;;;34.60;59.60;;;;;;5077184;28;20415;-88
2021/07/26 08:45:17;;;;;;;6.60;2.50;;;35.40;59.60;;;;;;5076168;28;20044;-88
2021/07/26 08:47:46;;;;;;;7.50;2.70;;;36.60;58.40;;;;;;5075650;28;20507;-86
2021/07/26 08:50:18;;;;;;;2.28;2.17;;;36.00;57.20;;;;;;5075588;28;20049;-85
2021/07/26 08:52:49;;;;;;;10.88;3.55;;;35.30;56.80;;;;;;5076393;28;20076;-86
2021/07/26 08:55:19;;;;;;;9.07;3.35;;;34.60;59.20;;;;;;5076156;28;20128;-87
2021/07/26 08:57:47;;;;;;;11.48;3.97;;;33.20;62.00;;;;;;5075879;28;20048;-87
2021/07/26 09:00:17;;;;;;;5.00;3.67;;;33.90;61.80;;;;;;5075721;28;20045;-90
2021/07/26 09:02:47;;;;;;;;;;;34.80;61.80;;;;;;5077625;28;20044;-89
2021/07/26 09:05:14;;;;;;;23.77;4.30;;;33.40;62.90;;;;;;5075498;28;19966;-90
2021/07/26 09:07:44;;;;;;;3.95;2.97;;;33.40;63.30;;;;;;5075331;28;20143;-87
2021/07/26 09:10:16;;;;;;;8.00;3.00;;;34.10;62.90;;;;;;5075517;28;20131;-88
2021/07/26 09:12:44;;;;;;;8.65;3.30;;;35.20;61.40;;;;;;5075523;28;20082;-87
2021/07/26 09:15:17;;;;;;;12.93;3.75;;;35.70;58.80;;;;;;5075565;28;20560;-86
2021/07/26 09:17:45;;;;;;;4.78;2.75;;;35.60;59.50;;;;;;5075159;28;20522;-86
2021/07/26 09:20:13;;;;;;;10.63;3.05;;;35.90;58.70;;;;;;5075521;28;20045;-86
2021/07/26 09:22:42;;;;;;;3.72;2.80;;;35.40;58.50;;;;;;5075235;28;20052;-89
2021/07/26 09:25:22;;;;;;;3.13;2.83;;;35.00;59.60;;;;;;5074884;28;20135;-85
2021/07/26 09:27:57;;;;;;;59.95;8.35;;;34.80;59.70;;;;;;5074751;28;20507;-85
2021/07/26 09:30:31;;;;;;;18.63;4.10;;;34.40;59.60;;;;;;5074856;28;20488;-86
2021/07/26 09:32:59;;;;;;;11.57;3.95;;;34.80;61.80;;;;;;5074735;28;20062;-86
2021/07/26 09:35:26;;;;;;;4.57;3.42;;;33.40;60.50;;;;;;5075010;28;20052;-86
2021/07/26 09:38:03;;;;;;;3.38;2.60;;;31.70;64.50;;;;;;5074713;28;20054;-86
2021/07/26 09:40:32;;;;;;;7.00;3.88;;;31.70;67.70;;;;;;5075722;28;20139;-88
2021/07/26 09:43:20;;;;;;;6.78;3.50;;;31.40;66.30;;;;;;5074486;28;20044;-86
2021/07/26 09:45:54;;;;;;;74.10;10.60;;;31.30;66.00;;;;;;5074203;28;20139;-86
2021/07/26 09:48:28;;;;;;;12.88;2.80;;;31.20;66.50;;;;;;5074270;28;20053;-87
2021/07/26 09:50:56;;;;;;;10.52;3.15;;;30.60;67.30;;;;;;5074192;28;20404;-84
2021/07/26 09:53:24;;;;;;;3.30;2.83;;;30.20;69.80;;;;;;5073534;28;20098;-85
2021/07/26 09:55:52;;;;;;;3.83;3.00;;;30.00;71.10;;;;;;5073246;28;20131;-85
2021/07/26 09:58:34;;;;;;;3.20;2.70;;;30.30;72.20;;;;;;5074794;28;20148;-84
2021/07/26 10:01:03;;;;;;;4.10;3.20;;;30.20;69.90;;;;;;5075415;28;20125;-86
2021/07/26 10:03:30;;;;;;;20.13;4.47;;;29.50;71.50;;;;;;5074402;28;20048;-84
2021/07/26 10:05:59;;;;;;;10.57;3.75;;;29.50;71.20;;;;;;5074214;28;20052;-85
2021/07/26 10:08:28;;;;;;;3.55;2.90;;;29.00;72.20;;;;;;5073388;28;20062;-84
2021/07/26 10:10:58;;;;;;;11.00;4.13;;;29.40;73.10;;;;;;5073805;28;20102;-85
2021/07/26 10:13:25;;;;;;;10.30;3.17;;;29.10;74.20;;;;;;5073400;28;20055;-84
2021/07/26 10:15:52;;;;;;;4.30;2.70;;;29.30;74.80;;;;;;5074316;28;20084;-84
2021/07/26 10:18:20;;;;;;;6.15;3.22;;;29.40;74.20;;;;;;5073719;28;20060;-86
2021/07/26 10:21:05;;;;;;;12.55;3.65;;;29.00;73.80;;;;;;5073808;28;20055;-88
2021/07/26 10:23:41;;;;;;;7.53;3.50;;;28.60;75.20;;;;;;5074076;28;20544;-89
2021/07/26 10:26:16;;;;;;;3.08;2.78;;;28.40;76.40;;;;;;5073400;28;20064;-85
2021/07/26 10:28:56;;;;;;;7.22;3.22;;;28.20;78.50;;;;;;5073324;28;20086;-87
2021/07/26 10:31:32;;;;;;;6.88;3.47;;;28.80;79.20;;;;;;5074520;28;20174;-88
2021/07/26 10:34:04;;;;;;;7.07;3.20;;;28.50;78.50;;;;;;5075114;28;20051;-85
2021/07/26 10:36:40;;;;;;;7.53;3.30;;;28.30;82.40;;;;;;5073670;28;20453;-86
2021/07/26 10:39:11;;;;;;;5.15;3.40;;;28.70;81.10;;;;;;5073542;28;20057;-85
2021/07/26 10:41:45;;;;;;;3.15;2.75;;;29.40;80.80;;;;;;5074339;28;20135;-87
2021/07/26 10:44:18;;;;;;;4.35;3.25;;;30.10;76.50;;;;;;5073560;28;20457;-84
2021/07/26 10:46:51;;;;;;;3.63;3.30;;;30.40;75.50;;;;;;5073417;28;20094;-86
2021/07/26 10:49:18;;;;;;;5.05;3.25;;;29.80;77.00;;;;;;5073032;28;20063;-86
2021/07/26 10:51:50;;;;;;;3.28;2.97;;;29.90;77.80;;;;;;5073112;28;20143;-86
2021/07/26 10:54:34;;;;;;;2.83;2.63;;;31.20;76.20;;;;;;5072851;28;20055;-86
2021/07/26 10:57:05;;;;;;;2.58;2.47;;;31.90;73.80;;;;;;5072950;28;20435;-86
2021/07/26 11:00:07;;;;;;;8.30;2.90;;;32.30;70.40;;;;;;5074093;28;20128;-85
2021/07/26 11:02:36;;;;;;;2.90;2.63;;;31.80;68.90;;;;;;5071143;28;20131;-88
2021/07/26 11:05:28;;;;;;;6.68;2.72;;;32.20;67.80;;;;;;5073161;28;20417;-84
2021/07/26 11:08:13;;;;;;;2.92;2.70;;;31.90;68.50;;;;;;5072774;28;20553;-86
2021/07/26 11:10:58;;;;;;;2.85;2.65;;;32.10;70.80;;;;;;5072884;28;20045;-85
2021/07/26 11:13:49;;;;;;;3.03;2.75;;;32.30;71.00;;;;;;5072826;28;20049;-86
2021/07/26 11:17:11;;;;;;;4.03;3.13;;;31.20;72.40;;;;;;5073580;28;20131;-85
2021/07/26 11:19:41;;;;;;;5.57;3.38;;;30.50;72.20;;;;;;5072451;28;20088;-86
2021/07/26 11:22:17;;;;;;;2.63;2.50;;;30.30;75.30;;;;;;5072805;28;20496;-85
2021/07/26 11:24:48;;;;;;;3.42;3.13;;;29.80;73.70;;;;;;5073528;28;20076;-86
2021/07/26 11:27:35;;;;;;;4.35;3.00;;;29.60;75.50;;;;;;5072897;28;20049;-84
2021/07/26 11:30:03;;;;;;;2.60;2.40;;;29.50;76.00;;;;;;5061970;28;20083;-83
2021/07/26 11:32:30;;;;;;;3.58;2.78;;;28.80;73.50;;;;;;5073290;28;20487;-85
2021/07/26 11:35:02;;;;;;;3.55;2.58;;;28.60;76.10;;;;;;5072444;28;20554;-85
2021/07/26 11:37:31;;;;;;;3.08;2.45;;;28.40;78.00;;;;;;5069924;28;20139;-85
2021/07/26 11:40:04;;;;;;;2.40;2.25;;;28.40;79.00;;;;;;5072218;28;20052;-86
2021/07/26 11:42:39;;;;;;;3.13;2.60;;;28.20;77.40;;;;;;5072485;28;20135;-85
2021/07/26 11:45:11;;;;;;;3.17;2.88;;;28.00;78.60;;;;;;5072248;28;20067;-85
2021/07/26 11:47:41;;;;;;;2.40;2.25;;;27.40;81.00;;;;;;5072325;28;20132;-86
2021/07/26 11:50:12;;;;;;;3.03;2.83;;;27.20;81.70;;;;;;5072654;28;20083;-85
2021/07/26 11:52:54;;;;;;;4.88;2.50;;;26.90;82.10;;;;;;5072146;28;20056;-85
2021/07/26 11:55:23;;;;;;;2.92;2.40;;;26.60;82.60;;;;;;5072069;28;20143;-85
2021/07/26 11:57:57;;;;;;;3.28;2.90;;;26.40;87.30;;;;;;5071223;28;20496;-86
2021/07/26 12:00:38;;;;;;;3.35;3.13;;;26.20;88.50;;;;;;5072119;28;20048;-85
2021/07/26 12:03:06;;;;;;;2.63;2.53;;;25.90;91.10;;;;;;5072135;28;20059;-85
2021/07/26 12:05:34;;;;;;;2.92;2.72;;;25.70;93.70;;;;;;5072912;28;20052;-85
2021/07/26 12:08:12;;;;;;;7.22;3.20;;;25.40;99.90;;;;;;5073161;28;20045;-85
2021/07/26 12:10:39;;;;;;;4.50;3.30;;;25.00;99.90;;;;;;5072365;28;20507;-85
2021/07/26 12:13:11;;;;;;;10.52;3.30;;;24.50;99.90;;;;;;5073612;28;20044;-85
2021/07/26 12:15:40;;;;;;;3.50;3.28;;;23.90;99.90;;;;;;5077181;28;20123;-84
2021/07/26 12:18:31;;;;;;;5.25;3.25;;;23.60;99.90;;;;;;5076348;28;20110;-85
2021/07/26 12:20:58;;;;;;;4.90;3.30;;;23.20;99.90;;;;;;5077342;28;20048;-85
2021/07/26 12:23:26;;;;;;;3.33;3.00;;;23.00;99.90;;;;;;5076289;28;20051;-85
2021/07/26 12:25:58;;;;;;;5.28;3.30;;;22.80;99.90;;;;;;5076075;28;20123;-84
2021/07/26 12:28:45;;;;;;;5.53;3.10;;;22.80;99.90;;;;;;5076309;28;20049;-85
2021/07/26 12:31:27;;;;;;;3.65;3.35;;;22.90;99.90;;;;;;5077597;28;20041;-84
2021/07/26 12:34:14;;;;;;;6.35;3.85;;;22.90;99.90;;;;;;5077161;28;20053;-85
2021/07/26 12:36:42;;;;;;;5.78;3.42;;;23.10;99.90;;;;;;5076295;28;20058;-85
2021/07/26 12:39:10;;;;;;;4.93;3.42;;;23.30;99.90;;;;;;5075952;28;20098;-84
2021/07/26 12:41:39;;;;;;;3.90;3.60;;;23.50;99.90;;;;;;5075804;28;20044;-84
2021/07/26 12:44:17;;;;;;;5.20;3.97;;;23.80;99.90;;;;;;5075671;28;20071;-85
2021/07/26 12:46:49;;;;;;;3.78;3.42;;;24.10;99.90;;;;;;5075667;28;20052;-85
2021/07/26 12:49:19;;;;;;;3.28;2.97;;;24.20;99.90;;;;;;5075767;28;20044;-84
2021/07/26 12:51:46;;;;;;;3.95;3.55;;;24.30;99.90;;;;;;5075430;28;20051;-84